aviador You're here:

ETAD Decoded Metar

SPANGDAHLEM in GERMANY
Report Time2017-05-29 02:58:00
UTC Time2017-05-29 03:58:14
Flight Rules vfr VFR
WindCalm
Visibility9999 m
Phenomena:N/A
Clouds:N/A
Expected CloudBase > 400 ft AGL from Temp-Dew spread
CeilingNone
Temp16°C (ISA +3)
Dew Point15°C (94% RH)
QNH1016 hPa
Density Alt1,729 ft
Elevation1,198 ft
Report Wrong Elevation
Raw Report
METAR ETAD 290258Z AUTO 00000KT 9999 CLR 16/15 A3000 RMK AO2 SLP133
T01610145 56003 $=

Extra information for ETAD:More info

Metar Taf Metar & Taf Last 4 Metars F.Rules Stats Wind Profile Meteogram Temp Stats Airport Information Weather charts Add Link Nearby VenuesMetar ALERT Operation Metar Decoded Social comments